createdAt,value
2019-05-28T00:01:37.865Z,100444.34
2019-05-28T00:04:07.696Z,100447.83
2019-05-28T00:06:37.343Z,100446.30
2019-05-28T00:09:09.499Z,100445.44
2019-05-28T00:11:39.267Z,100443.18
2019-05-28T00:14:08.982Z,100443.22
2019-05-28T00:16:38.655Z,100442.38
2019-05-28T00:19:08.492Z,100441.01
2019-05-28T00:21:38.155Z,100440.89
2019-05-28T00:24:07.891Z,100435.23
2019-05-28T00:26:37.924Z,100435.55
2019-05-28T00:29:07.652Z,100428.20
2019-05-28T00:31:37.330Z,100431.06
2019-05-28T00:34:06.992Z,100431.24
2019-05-28T00:36:36.692Z,100426.13
2019-05-28T00:39:08.471Z,100429.05
2019-05-28T00:41:38.285Z,100421.80
2019-05-28T00:44:08.161Z,100418.02
2019-05-28T00:46:37.890Z,100410.41
2019-05-28T00:49:07.729Z,100415.37
2019-05-28T00:51:38.332Z,100407.30
2019-05-28T00:54:08.079Z,100410.32
2019-05-28T00:56:39.003Z,100413.36
2019-05-28T00:59:09.676Z,100413.03
2019-05-28T01:01:39.320Z,100409.47
2019-05-28T01:04:08.984Z,100399.98
2019-05-28T01:06:38.659Z,100404.22
2019-05-28T01:09:09.355Z,100408.58
2019-05-28T01:11:39.113Z,100406.22
2019-05-28T01:14:08.840Z,100403.00
2019-05-28T01:16:38.570Z,100400.68
2019-05-28T01:19:08.202Z,100400.09
2019-05-28T01:21:37.893Z,100403.51
2019-05-28T01:24:07.563Z,100401.11
2019-05-28T01:26:37.296Z,100393.20
2019-05-28T01:29:07.070Z,100388.52
2019-05-28T01:31:36.752Z,100388.45
2019-05-28T01:34:06.515Z,100385.48
2019-05-28T01:36:36.192Z,100382.87
2019-05-28T01:39:08.084Z,100376.89
2019-05-28T01:41:37.754Z,100377.25
2019-05-28T01:44:07.560Z,100377.25
2019-05-28T01:46:37.239Z,100377.06
2019-05-28T01:49:06.923Z,100376.98
2019-05-28T01:51:36.637Z,100375.75
2019-05-28T01:54:06.430Z,100366.41
2019-05-28T01:56:36.126Z,100367.90
2019-05-28T01:59:05.850Z,100363.98
2019-05-28T02:01:35.702Z,100364.34
2019-05-28T02:04:06.181Z,100367.36
2019-05-28T02:06:35.857Z,100365.22
2019-05-28T02:09:08.037Z,100364.67
2019-05-28T02:11:37.726Z,100358.27
2019-05-28T02:14:07.555Z,100353.81
2019-05-28T02:16:37.328Z,100353.91
2019-05-28T02:19:07.007Z,100354.92
2019-05-28T02:21:36.746Z,100349.16
2019-05-28T02:24:06.719Z,100345.22
2019-05-28T02:26:36.391Z,100352.46
2019-05-28T02:29:06.307Z,100347.93
2019-05-28T02:31:36.122Z,100345.50
2019-05-28T02:34:05.941Z,100339.38
2019-05-28T02:36:35.622Z,100346.05
2019-05-28T02:39:08.663Z,100342.72
2019-05-28T02:41:38.528Z,100348.22
2019-05-28T02:44:08.346Z,100350.25
2019-05-28T02:46:38.044Z,100345.50
2019-05-28T02:49:07.811Z,100344.63
2019-05-28T02:51:38.043Z,100346.66
2019-05-28T02:54:07.765Z,100349.55
2019-05-28T02:56:40.108Z,100346.11
2019-05-28T02:59:13.830Z,100353.25
2019-05-28T03:01:45.705Z,100349.37
2019-05-28T03:04:18.305Z,100348.93
2019-05-28T03:06:50.941Z,100349.84
2019-05-28T03:09:23.844Z,100345.59
2019-05-28T03:11:53.503Z,100344.66
2019-05-28T03:14:23.187Z,100350.48
2019-05-28T03:16:57.461Z,100357.67
2019-05-28T03:19:30.168Z,100353.50
2019-05-28T03:22:03.256Z,100353.95
2019-05-28T03:24:35.808Z,100352.86
2019-05-28T03:27:05.690Z,100353.87
2019-05-28T03:29:35.523Z,100353.91
2019-05-28T03:32:08.590Z,100349.89
2019-05-28T03:34:36.932Z,100349.74
2019-05-28T03:37:07.453Z,100352.17
2019-05-28T03:39:41.732Z,100344.12
2019-05-28T03:42:11.364Z,100347.89
2019-05-28T03:44:41.010Z,100352.09
2019-05-28T03:47:10.686Z,100345.81
2019-05-28T03:49:40.358Z,100337.30
2019-05-28T03:52:10.033Z,100342.67
2019-05-28T03:54:39.707Z,100341.74
2019-05-28T03:57:09.452Z,100343.16
2019-05-28T03:59:39.132Z,100343.13
2019-05-28T04:02:22.670Z,100348.61
2019-05-28T04:04:40.231Z,100350.20
2019-05-28T04:07:09.878Z,100348.56
2019-05-28T04:09:39.544Z,100345.81
2019-05-28T04:12:09.275Z,100349.01
2019-05-28T04:14:38.968Z,100345.59
2019-05-28T04:17:08.700Z,100347.27
2019-05-28T04:19:38.393Z,100348.64
2019-05-28T04:22:08.154Z,100351.05
2019-05-28T04:24:37.926Z,100356.38
2019-05-28T04:27:07.655Z,100357.20
2019-05-28T04:29:37.419Z,100352.78
2019-05-28T04:32:07.495Z,100354.42
2019-05-28T04:34:37.217Z,100356.17
2019-05-28T04:37:06.890Z,100356.88
2019-05-28T04:39:36.595Z,100357.16
2019-05-28T04:42:06.498Z,100351.36
2019-05-28T04:44:36.243Z,100350.67
2019-05-28T04:47:08.457Z,100354.84
2019-05-28T04:49:37.303Z,100350.71
2019-05-28T04:52:07.294Z,100352.95
2019-05-28T04:54:36.964Z,100354.98
2019-05-28T04:57:06.630Z,100350.99
2019-05-28T04:59:36.511Z,100354.36
2019-05-28T05:02:06.145Z,100351.32
2019-05-28T05:04:35.811Z,100355.16
2019-05-28T05:07:05.556Z,100354.89
2019-05-28T05:09:35.193Z,100348.31
2019-05-28T05:12:05.095Z,100346.67
2019-05-28T05:14:34.893Z,100343.91
2019-05-28T05:19:43.408Z,100348.15
2019-05-28T05:22:13.333Z,100350.79
2019-05-28T05:24:43.122Z,100349.92
2019-05-28T05:27:13.004Z,100343.94
2019-05-28T05:29:42.846Z,100346.50
2019-05-28T05:32:12.549Z,100347.04
2019-05-28T05:34:42.757Z,100339.91
2019-05-28T05:37:12.762Z,100339.78
2019-05-28T05:39:43.178Z,100339.57
2019-05-28T05:42:13.046Z,100340.45
2019-05-28T05:44:43.036Z,100338.94
2019-05-28T05:47:13.173Z,100345.70
2019-05-28T05:49:43.243Z,100349.37
2019-05-28T05:52:12.912Z,100344.34
2019-05-28T05:54:42.948Z,100351.73
2019-05-28T05:57:12.693Z,100343.80
2019-05-28T05:59:42.535Z,100347.41
2019-05-28T06:02:12.201Z,100356.07
2019-05-28T06:04:42.104Z,100355.36
2019-05-28T06:07:11.829Z,100357.84
2019-05-28T06:09:41.500Z,100365.44
2019-05-28T06:12:11.389Z,100364.77
2019-05-28T06:14:41.095Z,100364.98
2019-05-28T06:17:10.930Z,100361.00
2019-05-28T06:19:40.825Z,100365.32
2019-05-28T06:22:10.656Z,100370.95
2019-05-28T06:24:40.558Z,100372.36
2019-05-28T06:27:10.440Z,100373.13
2019-05-28T06:29:40.319Z,100377.65
2019-05-28T06:32:10.263Z,100386.53
2019-05-28T06:34:40.180Z,100381.84
2019-05-28T06:37:10.004Z,100386.81
2019-05-28T06:39:39.915Z,100392.14
2019-05-28T06:42:09.843Z,100392.31
2019-05-28T06:44:39.687Z,100392.27
2019-05-28T06:47:09.713Z,100398.73
2019-05-28T06:49:39.538Z,100400.95
2019-05-28T06:52:09.277Z,100399.98
2019-05-28T06:54:39.105Z,100400.23
2019-05-28T06:57:22.211Z,100395.58
2019-05-28T06:59:40.579Z,100398.98
2019-05-28T07:02:10.460Z,100397.39
2019-05-28T07:04:40.131Z,100400.13
2019-05-28T07:07:09.955Z,100400.48
2019-05-28T07:09:39.643Z,100402.29
2019-05-28T07:12:09.493Z,100399.49
2019-05-28T07:14:39.283Z,100399.41
2019-05-28T07:17:09.116Z,100405.39
2019-05-28T07:19:38.809Z,100406.78
2019-05-28T07:22:08.496Z,100404.72
2019-05-28T07:24:38.280Z,100402.56
2019-05-28T07:27:08.110Z,100398.67
2019-05-28T07:29:37.879Z,100403.61
2019-05-28T07:32:07.583Z,100400.89
2019-05-28T07:34:37.472Z,100406.26
2019-05-28T07:37:07.333Z,100400.64
2019-05-28T07:39:37.553Z,100406.36
2019-05-28T07:42:07.225Z,100408.95
2019-05-28T07:44:37.003Z,100407.16
2019-05-28T07:47:10.752Z,100409.38
2019-05-28T07:49:38.283Z,100408.28
2019-05-28T07:52:08.104Z,100405.06
2019-05-28T07:54:39.487Z,100404.64
2019-05-28T07:57:09.415Z,100402.93
2019-05-28T07:59:42.589Z,100405.44
2019-05-28T08:02:12.507Z,100401.94
2019-05-28T08:04:47.128Z,100409.48
2019-05-28T08:07:14.372Z,100407.73
2019-05-28T08:09:44.098Z,100405.70
2019-05-28T08:12:14.224Z,100397.13
2019-05-28T08:14:44.270Z,100404.39
2019-05-28T08:17:14.106Z,100409.31
2019-05-28T08:19:44.202Z,100409.74
2019-05-28T08:22:13.989Z,100406.37
2019-05-28T08:24:43.627Z,100407.72
2019-05-28T08:27:13.395Z,100411.35
2019-05-28T08:29:45.593Z,100404.52
2019-05-28T08:32:14.838Z,100406.16
2019-05-28T08:34:44.701Z,100394.11
2019-05-28T08:37:14.452Z,100400.83
2019-05-28T08:39:44.209Z,100399.04
2019-05-28T08:42:13.963Z,100396.88
2019-05-28T08:44:43.753Z,100399.31
2019-05-28T08:47:13.504Z,100400.54
2019-05-28T08:49:43.252Z,100401.20
2019-05-28T08:52:13.035Z,100401.90
2019-05-28T08:54:42.750Z,100400.01
2019-05-28T08:57:12.767Z,100405.19
2019-05-28T08:59:42.528Z,100408.64
2019-05-28T09:02:27.391Z,100398.75
2019-05-28T09:04:43.753Z,100398.59
2019-05-28T09:07:13.560Z,100398.27
2019-05-28T09:09:43.293Z,100397.74
2019-05-28T09:12:13.059Z,100409.11
2019-05-28T09:14:55.937Z,100418.55
2019-05-28T09:17:14.503Z,100417.39
2019-05-28T09:19:44.314Z,100416.13
2019-05-28T09:22:25.210Z,100419.52
2019-05-28T09:24:45.647Z,100424.74
2019-05-28T09:27:15.729Z,100426.08
2019-05-28T09:29:45.441Z,100426.42
2019-05-28T09:32:15.176Z,100428.88
2019-05-28T09:34:44.903Z,100439.16
2019-05-28T09:37:14.552Z,100452.48
2019-05-28T09:39:44.238Z,100445.88
2019-05-28T09:42:14.009Z,100448.47
2019-05-28T09:44:43.886Z,100449.78
2019-05-28T09:47:13.705Z,100453.71
2019-05-28T09:49:43.685Z,100456.00
2019-05-28T09:52:13.546Z,100456.22
2019-05-28T09:54:43.356Z,100456.25
2019-05-28T09:57:13.114Z,100455.78
2019-05-28T09:59:42.954Z,100450.23
2019-05-28T10:02:12.822Z,100450.29
2019-05-28T10:04:49.027Z,100449.48
2019-05-28T10:07:14.248Z,100446.59
2019-05-28T10:09:45.277Z,100450.98
2019-05-28T10:12:15.464Z,100461.86
2019-05-28T10:14:45.349Z,100467.77
2019-05-28T10:17:15.176Z,100466.33
2019-05-28T10:19:44.913Z,100475.92
2019-05-28T10:22:14.821Z,100487.68
2019-05-28T10:24:45.526Z,100492.49
2019-05-28T10:27:15.461Z,100503.38
2019-05-28T10:29:45.194Z,100533.59
2019-05-28T10:32:15.048Z,100529.69
2019-05-28T10:35:02.712Z,100532.53
2019-05-28T10:37:16.325Z,100529.91
2019-05-28T10:39:46.108Z,100537.05
2019-05-28T10:42:15.922Z,100541.45
2019-05-28T10:44:45.886Z,100545.26
2019-05-28T10:47:15.865Z,100527.41
2019-05-28T10:49:45.837Z,100519.89
2019-05-28T10:52:15.734Z,100521.63
2019-05-28T10:54:45.568Z,100521.57
2019-05-28T10:57:15.389Z,100520.33
2019-05-28T10:59:45.215Z,100518.41
2019-05-28T11:02:15.152Z,100527.49
2019-05-28T11:04:44.882Z,100531.63
2019-05-28T11:07:14.781Z,100529.00
2019-05-28T11:09:44.605Z,100536.20
2019-05-28T11:12:14.471Z,100535.98
2019-05-28T11:14:44.189Z,100532.28
2019-05-28T11:17:14.183Z,100522.27
2019-05-28T11:19:43.891Z,100534.27
2019-05-28T11:22:13.661Z,100541.89
2019-05-28T11:24:43.366Z,100562.56
2019-05-28T11:27:13.223Z,100566.22
2019-05-28T11:29:43.190Z,100576.23
2019-05-28T11:32:13.077Z,100564.91
2019-05-28T11:34:42.841Z,100568.95
2019-05-28T11:37:13.418Z,100571.38
2019-05-28T11:39:43.690Z,100572.80
2019-05-28T11:42:14.822Z,100579.80
2019-05-28T11:44:44.593Z,100573.55
2019-05-28T11:47:14.401Z,100577.25
2019-05-28T11:49:44.140Z,100574.85
2019-05-28T11:52:13.901Z,100577.80
2019-05-28T11:54:43.771Z,100582.97
2019-05-28T11:57:13.743Z,100582.19
2019-05-28T11:59:43.497Z,100581.55
2019-05-28T12:02:13.350Z,100574.67
2019-05-28T12:04:43.161Z,100584.68
2019-05-28T12:07:25.517Z,100580.72
2019-05-28T12:09:44.307Z,100581.38
2019-05-28T12:12:14.161Z,100582.50
2019-05-28T12:14:43.984Z,100582.52
2019-05-28T12:17:13.877Z,100573.88
2019-05-28T12:19:43.637Z,100584.29
2019-05-28T12:22:15.396Z,100584.92
2019-05-28T12:24:45.070Z,100582.20
2019-05-28T12:27:15.779Z,100578.62
2019-05-28T12:29:52.075Z,100585.13
2019-05-28T12:32:17.642Z,100592.52
2019-05-28T12:34:50.666Z,100598.44
2019-05-28T12:37:20.377Z,100603.27
2019-05-28T12:39:50.437Z,100604.13
2019-05-28T12:42:20.153Z,100603.67
2019-05-28T12:45:08.280Z,100612.05
2019-05-28T12:47:21.303Z,100616.64
2019-05-28T12:49:51.154Z,100616.37
2019-05-28T12:52:20.855Z,100614.86
2019-05-28T12:54:50.668Z,100612.55
2019-05-28T12:57:20.369Z,100616.32
2019-05-28T12:59:50.006Z,100613.30
2019-05-28T13:02:19.760Z,100617.64
2019-05-28T13:04:49.408Z,100618.03
2019-05-28T13:07:19.164Z,100615.59
2019-05-28T13:09:49.455Z,100631.57
2019-05-28T13:12:19.409Z,100638.00
2019-05-28T13:14:49.570Z,100638.20
2019-05-28T13:17:19.516Z,100640.59
2019-05-28T13:19:49.278Z,100643.48
2019-05-28T13:22:19.071Z,100649.88
2019-05-28T13:24:48.745Z,100655.07
2019-05-28T13:27:18.743Z,100657.36
2019-05-28T13:29:48.440Z,100659.32
2019-05-28T13:32:18.310Z,100661.31
2019-05-28T13:34:48.186Z,100659.80
2019-05-28T13:37:19.108Z,100670.89
2019-05-28T13:39:49.066Z,100664.83
2019-05-28T13:42:19.055Z,100670.80
2019-05-28T13:44:48.811Z,100671.81
2019-05-28T13:47:33.132Z,100674.26
2019-05-28T13:49:50.271Z,100678.09
2019-05-28T13:52:20.261Z,100676.14
2019-05-28T13:54:49.985Z,100684.04
2019-05-28T13:57:19.672Z,100687.46
2019-05-28T13:59:49.366Z,100694.06
2019-05-28T14:02:19.203Z,100698.52
2019-05-28T14:04:48.913Z,100700.59
2019-05-28T14:07:18.569Z,100701.48
2019-05-28T14:09:48.262Z,100714.81
2019-05-28T14:12:18.161Z,100707.02
2019-05-28T14:14:47.998Z,100713.85
2019-05-28T14:17:17.752Z,100711.04
2019-05-28T14:19:47.701Z,100719.38
2019-05-28T14:22:32.880Z,100717.33
2019-05-28T14:24:48.946Z,100719.63
2019-05-28T14:27:18.872Z,100716.25
2019-05-28T14:29:48.842Z,100724.07
2019-05-28T14:32:18.697Z,100725.73
2019-05-28T14:34:52.257Z,100728.70
2019-05-28T14:37:20.264Z,100724.77
2019-05-28T14:39:50.040Z,100727.14
2019-05-28T14:42:19.735Z,100729.69
2019-05-28T14:44:50.102Z,100733.95
2019-05-28T14:47:20.001Z,100738.48
2019-05-28T14:49:49.776Z,100733.69
2019-05-28T14:52:19.471Z,100740.97
2019-05-28T14:54:49.239Z,100743.77
2019-05-28T14:57:19.068Z,100752.48
2019-05-28T14:59:48.864Z,100750.28
2019-05-28T15:02:18.743Z,100751.45
2019-05-28T15:04:48.421Z,100746.06
2019-05-28T15:07:18.245Z,100756.14
2019-05-28T15:09:49.850Z,100758.00
2019-05-28T15:12:19.525Z,100768.06
2019-05-28T15:14:49.418Z,100771.08
2019-05-28T15:17:19.112Z,100775.47
2019-05-28T15:19:48.878Z,100787.77
2019-05-28T15:22:18.571Z,100780.75
2019-05-28T15:24:49.893Z,100783.05
2019-05-28T15:27:20.111Z,100786.20
2019-05-28T15:30:11.806Z,100794.11
2019-05-28T15:32:41.614Z,100807.92
2019-05-28T15:35:13.756Z,100793.22
2019-05-28T15:37:43.529Z,100807.45
2019-05-28T15:40:13.486Z,100814.23
2019-05-28T15:42:43.297Z,100809.36
2019-05-28T15:45:14.145Z,100811.34
2019-05-28T15:47:45.104Z,100816.66
2019-05-28T15:50:15.832Z,100818.50
2019-05-28T15:52:45.868Z,100818.83
2019-05-28T15:55:15.782Z,100821.67
2019-05-28T15:57:45.635Z,100823.94
2019-05-28T16:00:23.763Z,100827.04
2019-05-28T16:02:53.811Z,100820.34
2019-05-28T16:05:23.665Z,100832.22
2019-05-28T16:07:53.369Z,100833.20
2019-05-28T16:10:23.231Z,100832.05
2019-05-28T16:12:52.976Z,100830.95
2019-05-28T16:15:22.904Z,100836.42
2019-05-28T16:17:52.593Z,100841.17
2019-05-28T16:20:22.484Z,100843.31
2019-05-28T16:22:52.148Z,100842.08
2019-05-28T16:25:22.239Z,100847.49
2019-05-28T16:27:52.032Z,100848.55
2019-05-28T16:30:23.333Z,100855.91
2019-05-28T16:32:52.988Z,100863.34
2019-05-28T16:35:22.822Z,100865.27
2019-05-28T16:37:52.457Z,100872.94
2019-05-28T16:40:22.248Z,100875.58
2019-05-28T16:42:51.923Z,100883.07
2019-05-28T16:45:22.467Z,100884.28
2019-05-28T16:47:52.164Z,100885.45
2019-05-28T16:50:22.226Z,100894.20
2019-05-28T16:52:51.887Z,100895.58
2019-05-28T16:55:22.629Z,100896.66
2019-05-28T16:57:52.482Z,100905.69
2019-05-28T17:00:22.517Z,100907.71
2019-05-28T17:02:52.336Z,100912.97
2019-05-28T17:05:21.961Z,100914.48
2019-05-28T17:07:51.670Z,100909.27
2019-05-28T17:10:32.507Z,100922.16
2019-05-28T17:12:52.919Z,100922.74
2019-05-28T17:15:22.742Z,100925.42
2019-05-28T17:17:52.380Z,100932.13
2019-05-28T17:20:22.173Z,100931.22
2019-05-28T17:22:55.167Z,100936.23
2019-05-28T17:25:23.539Z,100931.97
2019-05-28T17:27:53.219Z,100947.68
2019-05-28T17:30:24.473Z,100950.80
2019-05-28T17:32:54.526Z,100948.58
2019-05-28T17:35:24.237Z,100947.53
2019-05-28T17:37:53.901Z,100955.31
2019-05-28T17:40:23.536Z,100958.77
2019-05-28T17:42:53.313Z,100961.33
2019-05-28T17:45:23.195Z,100961.45
2019-05-28T17:47:52.888Z,100966.36
2019-05-28T17:50:23.550Z,100968.11
2019-05-28T17:52:53.281Z,100976.91
2019-05-28T17:55:22.943Z,100975.73
2019-05-28T17:57:52.726Z,100975.55
2019-05-28T18:00:22.476Z,100977.67
2019-05-28T18:02:52.165Z,100985.17
2019-05-28T18:05:21.897Z,100997.61
2019-05-28T18:07:51.607Z,100999.23
2019-05-28T18:10:21.679Z,101001.61
2019-05-28T18:12:51.321Z,101006.97
2019-05-28T18:15:21.059Z,101016.20
2019-05-28T18:17:50.798Z,101020.83
2019-05-28T18:20:20.991Z,101019.80
2019-05-28T18:22:50.676Z,101027.56
2019-05-28T18:25:20.893Z,101031.92
2019-05-28T18:27:50.733Z,101035.38
2019-05-28T18:30:21.811Z,101039.70
2019-05-28T18:32:51.448Z,101037.86
2019-05-28T18:35:21.257Z,101039.42
2019-05-28T18:37:50.898Z,101048.56
2019-05-28T18:40:20.845Z,101052.38
2019-05-28T18:42:50.511Z,101050.55
2019-05-28T18:45:20.781Z,101057.01
2019-05-28T18:47:50.417Z,101052.42
2019-05-28T18:50:20.383Z,101064.94
2019-05-28T18:52:50.051Z,101064.01
2019-05-28T18:55:19.860Z,101076.19
2019-05-28T18:57:51.094Z,101075.45
2019-05-28T19:00:20.935Z,101070.20
2019-05-28T19:02:50.601Z,101074.42
2019-05-28T19:05:20.774Z,101087.31
2019-05-28T19:07:50.437Z,101086.88
2019-05-28T19:10:20.320Z,101095.23
2019-05-28T19:12:50.044Z,101101.26
2019-05-28T19:15:20.589Z,101096.92
2019-05-28T19:17:50.367Z,101108.52
2019-05-28T19:20:20.983Z,101111.58
2019-05-28T19:22:50.619Z,101117.03
2019-05-28T19:25:20.831Z,101119.17
2019-05-28T19:27:50.509Z,101119.52
2019-05-28T19:30:33.068Z,101128.45
2019-05-28T19:33:05.147Z,101136.06
2019-05-28T19:35:35.068Z,101137.05
2019-05-28T19:38:05.271Z,101142.66
2019-05-28T19:40:42.021Z,101154.15
2019-05-28T19:43:11.722Z,101150.52
2019-05-28T19:45:41.495Z,101160.10
2019-05-28T19:48:11.247Z,101164.00
2019-05-28T19:50:40.885Z,101172.42
2019-05-28T19:53:10.625Z,101174.20
2019-05-28T19:55:40.361Z,101179.86
2019-05-28T19:58:10.204Z,101183.81
2019-05-28T20:00:40.089Z,101191.81
2019-05-28T20:03:09.817Z,101191.28
2019-05-28T20:05:39.569Z,101200.97
2019-05-28T20:08:09.533Z,101201.75
2019-05-28T20:10:39.487Z,101207.13
2019-05-28T20:13:09.174Z,101211.73
2019-05-28T20:15:38.835Z,101215.30
2019-05-28T20:18:23.910Z,101213.48
2019-05-28T20:20:40.125Z,101210.29
2019-05-28T20:23:09.944Z,101216.87
2019-05-28T20:25:39.598Z,101219.84
2019-05-28T20:28:09.357Z,101230.58
2019-05-28T20:30:39.177Z,101229.45
2019-05-28T20:33:09.466Z,101228.68
2019-05-28T20:35:39.382Z,101243.72
2019-05-28T20:38:12.245Z,101240.59
2019-05-28T20:40:40.573Z,101248.35
2019-05-28T20:43:10.353Z,101255.94
2019-05-28T20:45:40.048Z,101253.70
2019-05-28T20:48:10.792Z,101248.35
2019-05-28T20:50:40.613Z,101251.86
2019-05-28T20:53:10.443Z,101254.90
2019-05-28T20:55:40.223Z,101250.16
2019-05-28T20:58:09.881Z,101259.34
2019-05-28T21:00:39.585Z,101262.05
2019-05-28T21:03:09.334Z,101264.33
2019-05-28T21:05:39.075Z,101271.83
2019-05-28T21:08:08.768Z,101275.39
2019-05-28T21:10:38.502Z,101286.24
2019-05-28T21:13:08.238Z,101285.04
2019-05-28T21:15:37.973Z,101286.38
2019-05-28T21:18:07.737Z,101293.25
2019-05-28T21:20:37.603Z,101289.79
2019-05-28T21:23:07.239Z,101298.04
2019-05-28T21:25:36.999Z,101299.94
2019-05-28T21:28:06.765Z,101298.62
2019-05-28T21:30:36.391Z,101309.42
2019-05-28T21:33:06.209Z,101302.79
2019-05-28T21:35:35.879Z,101311.87
2019-05-28T21:38:05.847Z,101315.66
2019-05-28T21:40:35.524Z,101323.14
2019-05-28T21:43:09.646Z,101319.38
2019-05-28T21:45:36.748Z,101322.39
2019-05-28T21:48:06.718Z,101327.50
2019-05-28T21:50:36.426Z,101322.14
2019-05-28T21:53:06.507Z,101326.39
2019-05-28T21:55:36.245Z,101324.78
2019-05-28T21:58:06.110Z,101337.91
2019-05-28T22:00:50.023Z,101336.09
2019-05-28T22:03:19.757Z,101344.42
2019-05-28T22:05:49.519Z,101342.91
2019-05-28T22:08:19.233Z,101343.14
2019-05-28T22:10:48.889Z,101348.28
2019-05-28T22:13:22.423Z,101350.38
2019-05-28T22:15:50.015Z,101355.30
2019-05-28T22:18:19.932Z,101365.17
2019-05-28T22:20:49.588Z,101362.22
2019-05-28T22:23:19.267Z,101363.02
2019-05-28T22:25:48.991Z,101367.41
2019-05-28T22:28:18.688Z,101370.16
2019-05-28T22:30:48.570Z,101374.16
2019-05-28T22:33:18.398Z,101375.78
2019-05-28T22:35:48.133Z,101389.20
2019-05-28T22:38:17.811Z,101391.13
2019-05-28T22:40:47.551Z,101385.02
2019-05-28T22:43:30.778Z,101386.11
2019-05-28T22:45:48.787Z,101388.83
2019-05-28T22:48:18.585Z,101395.25
2019-05-28T22:50:48.239Z,101395.53
2019-05-28T22:53:17.903Z,101399.84
2019-05-28T22:55:47.587Z,101407.06
2019-05-28T22:58:17.239Z,101406.54
2019-05-28T23:00:46.917Z,101407.34
2019-05-28T23:03:16.678Z,101414.27
2019-05-28T23:05:46.321Z,101413.76
2019-05-28T23:08:15.968Z,101418.88
2019-05-28T23:10:46.501Z,101423.19
2019-05-28T23:13:16.157Z,101421.56
2019-05-28T23:15:45.926Z,101423.72
2019-05-28T23:18:15.637Z,101430.92
2019-05-28T23:20:45.301Z,101432.28
2019-05-28T23:23:15.035Z,101432.26
2019-05-28T23:25:44.682Z,101433.30
2019-05-28T23:28:14.365Z,101434.39
2019-05-28T23:30:44.001Z,101434.10
2019-05-28T23:33:14.270Z,101442.39
2019-05-28T23:35:44.504Z,101446.42
2019-05-28T23:38:14.258Z,101446.16
2019-05-28T23:40:44.054Z,101453.08
2019-05-28T23:43:13.876Z,101457.63
2019-05-28T23:45:43.811Z,101456.81
2019-05-28T23:48:17.851Z,101462.94
2019-05-28T23:50:45.033Z,101464.81
2019-05-28T23:53:14.697Z,101468.83
2019-05-28T23:55:44.585Z,101461.36
2019-05-28T23:58:14.294Z,101464.28
